Time;durP1;ratioP1;P1;durP2;ratioP2;P2;SDS_P1;SDS_P2;PMS_P1;PMS_P2;Temp;Humidity;BMP_temperature;BMP_pressure;BME280_temperature;BME280_humidity;BME280_pressure;Samples;Min_cycle;Max_cycle;Signal;HPM_P1;HPM_P2
2023/10/20 00:00:18;;;;;;;8.57;7.60;;;;;;;;;;5052716;28;20445;-77
2023/10/20 00:02:46;;;;;;;13.13;8.70;;;;;;;;;;5053111;28;20426;-77
2023/10/20 00:05:14;;;;;;;10.40;8.37;;;;;;;;;;5055813;28;20521;-77
2023/10/20 00:07:42;;;;;;;10.17;8.97;;;;;;;;;;5056348;28;20508;-77
2023/10/20 00:10:11;;;;;;;8.90;7.03;;;;;;;;;;5056055;28;20493;-77
2023/10/20 00:12:38;;;;;;;13.30;8.67;;;;;;;;;;5056255;28;20482;-77
2023/10/20 00:15:07;;;;;;;8.97;7.40;;;;;;;;;;5055655;28;20940;-77
2023/10/20 00:17:34;;;;;;;7.90;6.50;;;;;;;;;;5055966;28;20479;-77
2023/10/20 00:20:02;;;;;;;8.07;7.20;;;;;;;;;;5055878;28;20468;-77
2023/10/20 00:22:30;;;;;;;10.20;7.67;;;;;;;;;;5055994;28;20472;-77
2023/10/20 00:24:58;;;;;;;11.43;8.00;;;;;;;;;;5055660;28;20526;-77
2023/10/20 00:27:25;;;;;;;11.00;7.03;;;;;;;;;;5055638;28;20450;-77
2023/10/20 00:29:52;;;;;;;10.50;7.37;;;;;;;;;;5055932;28;20520;-77
2023/10/20 00:32:20;;;;;;;7.80;7.00;;;;;;;;;;5055482;28;20524;-77
2023/10/20 00:34:47;;;;;;;7.40;6.40;;;;;;;;;;5055362;28;20426;-77
2023/10/20 00:37:14;;;;;;;7.90;7.10;;;;;;;;;;5055620;28;20895;-77
2023/10/20 00:39:43;;;;;;;9.20;8.10;;;;;;;;;;5055688;28;20458;-77
2023/10/20 00:42:10;;;;;;;13.53;7.70;;;;;;;;;;5054204;28;20441;-76
2023/10/20 00:44:38;;;;;;;9.80;6.70;;;;;;;;;;5055713;28;20472;-77
2023/10/20 00:47:06;;;;;;;9.10;6.90;;;;;;;;;;5055095;28;20507;-77
2023/10/20 00:49:33;;;;;;;12.67;7.70;;;;;;;;;;5055414;28;21012;-77
2023/10/20 00:52:00;;;;;;;9.80;7.43;;;;;;;;;;5055071;28;20541;-77
2023/10/20 00:54:28;;;;;;;8.57;7.33;;;;;;;;;;5055507;28;20469;-77
2023/10/20 00:56:56;;;;;;;8.33;7.40;;;;;;;;;;5055268;28;20473;-77
2023/10/20 00:59:24;;;;;;;9.20;7.80;;;;;;;;;;5054903;28;20524;-77
2023/10/20 01:01:51;;;;;;;8.07;6.97;;;;;;;;;;5054513;28;20979;-77
2023/10/20 01:04:19;;;;;;;8.53;6.20;;;;;;;;;;5054598;28;20525;-77
2023/10/20 01:06:48;;;;;;;9.07;8.17;;;;;;;;;;5054732;28;20441;-77
2023/10/20 01:09:23;;;;;;;12.80;7.17;;;;;;;;;;5054585;28;20441;-77
2023/10/20 01:11:51;;;;;;;8.30;7.50;;;;;;;;;;5054842;28;20445;-77
2023/10/20 01:14:19;;;;;;;10.63;6.37;;;;;;;;;;5054651;28;20472;-77
2023/10/20 01:16:46;;;;;;;7.67;6.90;;;;;;;;;;5054129;28;20481;-77
2023/10/20 01:19:14;;;;;;;9.20;6.50;;;;;;;;;;5054405;28;20576;-77
2023/10/20 01:21:41;;;;;;;7.40;6.43;;;;;;;;;;5054782;28;20794;-77
2023/10/20 01:24:11;;;;;;;9.67;7.77;;;;;;;;;;5054436;28;20464;-77
2023/10/20 01:26:38;;;;;;;8.57;7.70;;;;;;;;;;5054174;28;20441;-77
2023/10/20 01:29:09;;;;;;;11.10;8.20;;;;;;;;;;5054591;28;20461;-77
2023/10/20 01:31:37;;;;;;;8.97;7.53;;;;;;;;;;5054413;28;20970;-77
2023/10/20 01:34:04;;;;;;;9.60;8.30;;;;;;;;;;5054539;28;20433;-77
2023/10/20 01:36:31;;;;;;;7.60;6.80;;;;;;;;;;5054351;28;20560;-76
2023/10/20 01:38:59;;;;;;;10.03;8.07;;;;;;;;;;5054566;28;20516;-77
2023/10/20 01:41:28;;;;;;;7.97;6.97;;;;;;;;;;5054438;28;20428;-77
2023/10/20 01:43:55;;;;;;;9.33;6.80;;;;;;;;;;5054429;28;20550;-77
2023/10/20 01:46:22;;;;;;;9.50;6.70;;;;;;;;;;5053780;28;20517;-77
2023/10/20 01:48:49;;;;;;;9.03;7.17;;;;;;;;;;5053914;28;20473;-77
2023/10/20 01:51:17;;;;;;;10.43;6.83;;;;;;;;;;5054298;28;20531;-77
2023/10/20 01:53:44;;;;;;;8.53;6.67;;;;;;;;;;5054250;28;20441;-77
2023/10/20 01:56:12;;;;;;;7.77;6.20;;;;;;;;;;5054026;28;20864;-77
2023/10/20 01:58:41;;;;;;;8.30;7.00;;;;;;;;;;5054379;28;20441;-77
2023/10/20 02:01:09;;;;;;;9.17;6.43;;;;;;;;;;5053588;28;20524;-77
2023/10/20 02:03:36;;;;;;;7.50;6.40;;;;;;;;;;5053866;28;20525;-77
2023/10/20 02:06:04;;;;;;;11.33;8.53;;;;;;;;;;5053689;28;20465;-76
2023/10/20 02:08:32;;;;;;;8.83;6.40;;;;;;;;;;5054230;28;20438;-77
2023/10/20 02:10:59;;;;;;;9.47;8.03;;;;;;;;;;5053688;28;20928;-77
2023/10/20 02:13:27;;;;;;;9.53;7.90;;;;;;;;;;5054149;28;20491;-77
2023/10/20 02:15:55;;;;;;;8.03;7.10;;;;;;;;;;5053373;28;20469;-77
2023/10/20 02:18:22;;;;;;;11.50;8.20;;;;;;;;;;5053789;28;20473;-77
2023/10/20 02:20:58;;;;;;;9.70;8.30;;;;;;;;;;5053437;28;20461;-77
2023/10/20 02:23:25;;;;;;;8.63;7.73;;;;;;;;;;5053346;28;20908;-77
2023/10/20 02:25:57;;;;;;;7.10;6.40;;;;;;;;;;5052532;28;20904;-76
2023/10/20 02:28:24;;;;;;;7.63;6.77;;;;;;;;;;5053752;28;20449;-77
2023/10/20 02:30:52;;;;;;;10.07;7.30;;;;;;;;;;5052672;28;20517;-77
2023/10/20 02:33:20;;;;;;;7.47;6.67;;;;;;;;;;5052909;28;20492;-77
2023/10/20 02:35:47;;;;;;;7.50;6.60;;;;;;;;;;5053547;28;20426;-77
2023/10/20 02:38:15;;;;;;;8.73;7.40;;;;;;;;;;5053441;28;20567;-77
2023/10/20 02:40:50;;;;;;;9.57;7.77;;;;;;;;;;5053298;28;20764;-76
2023/10/20 02:43:17;;;;;;;10.60;8.40;;;;;;;;;;5053109;28;20504;-77
2023/10/20 02:45:48;;;;;;;9.40;7.00;;;;;;;;;;5053597;28;20473;-77
2023/10/20 02:48:16;;;;;;;7.83;6.80;;;;;;;;;;5053249;28;20553;-77
2023/10/20 02:50:44;;;;;;;9.10;7.80;;;;;;;;;;5052945;28;20846;-77
2023/10/20 02:53:13;;;;;;;10.13;8.13;;;;;;;;;;5053529;28;20479;-77
2023/10/20 02:55:41;;;;;;;9.47;6.53;;;;;;;;;;5052686;28;20441;-77
2023/10/20 02:58:10;;;;;;;11.33;7.40;;;;;;;;;;5053192;28;20476;-77
2023/10/20 03:00:38;;;;;;;7.50;6.70;;;;;;;;;;5052901;28;20495;-77
2023/10/20 03:03:06;;;;;;;9.13;6.50;;;;;;;;;;5052835;28;20437;-77
2023/10/20 03:05:33;;;;;;;10.37;8.17;;;;;;;;;;5052757;28;20437;-77
2023/10/20 03:08:02;;;;;;;11.13;6.40;;;;;;;;;;5053227;28;20469;-77
2023/10/20 03:10:29;;;;;;;10.40;7.67;;;;;;;;;;5052443;28;20433;-77
2023/10/20 03:12:56;;;;;;;9.43;6.57;;;;;;;;;;5053006;28;20487;-77
2023/10/20 03:15:24;;;;;;;7.60;6.53;;;;;;;;;;5052706;28;20445;-77
2023/10/20 03:17:51;;;;;;;7.23;5.87;;;;;;;;;;5053060;28;20480;-77
2023/10/20 03:20:24;;;;;;;10.53;6.87;;;;;;;;;;5052649;28;20430;-77
2023/10/20 03:22:52;;;;;;;6.97;6.17;;;;;;;;;;5052811;28;20473;-77
2023/10/20 03:25:21;;;;;;;8.40;7.50;;;;;;;;;;5052661;28;20878;-77
2023/10/20 03:27:48;;;;;;;8.13;7.10;;;;;;;;;;5052979;28;20779;-77
2023/10/20 03:30:16;;;;;;;11.40;6.17;;;;;;;;;;5052700;28;20461;-77
2023/10/20 03:32:43;;;;;;;8.73;6.87;;;;;;;;;;5052635;28;20981;-77
2023/10/20 03:35:11;;;;;;;10.93;6.97;;;;;;;;;;5052475;28;20861;-77
2023/10/20 03:37:39;;;;;;;8.20;7.33;;;;;;;;;;5053130;28;20476;-77
2023/10/20 03:40:13;;;;;;;7.60;6.60;;;;;;;;;;5056842;28;20469;-77
2023/10/20 03:42:41;;;;;;;11.50;6.97;;;;;;;;;;5056877;28;20507;-77
2023/10/20 03:45:10;;;;;;;9.03;7.27;;;;;;;;;;5056459;28;20520;-77
2023/10/20 03:47:38;;;;;;;10.80;6.17;;;;;;;;;;5056207;28;20476;-77
2023/10/20 03:50:13;;;;;;;9.20;7.47;;;;;;;;;;5056381;28;20501;-77
2023/10/20 03:52:42;;;;;;;9.33;7.03;;;;;;;;;;5056474;28;20433;-77
2023/10/20 03:55:13;;;;;;;8.10;7.30;;;;;;;;;;5055477;28;20525;-76
2023/10/20 03:57:42;;;;;;;8.53;7.37;;;;;;;;;;5055846;28;20469;-77
2023/10/20 04:00:17;;;;;;;8.60;7.30;;;;;;;;;;5056107;28;20473;-77
2023/10/20 04:02:47;;;;;;;8.70;6.73;;;;;;;;;;5055979;28;20443;-77
2023/10/20 04:05:16;;;;;;;8.07;6.00;;;;;;;;;;5056050;28;20524;-76
2023/10/20 04:07:43;;;;;;;7.97;6.73;;;;;;;;;;5056267;28;20463;-76
2023/10/20 04:10:10;;;;;;;8.37;6.80;;;;;;;;;;5056304;28;20952;-77
2023/10/20 04:12:41;;;;;;;8.83;7.47;;;;;;;;;;5055896;28;20490;-77
2023/10/20 04:15:14;;;;;;;7.87;7.10;;;;;;;;;;5056266;28;20422;-76
2023/10/20 04:17:42;;;;;;;8.57;7.00;;;;;;;;;;5056139;28;20496;-77
2023/10/20 04:20:15;;;;;;;8.80;7.03;;;;;;;;;;5056015;28;20438;-77
2023/10/20 04:22:43;;;;;;;8.40;7.17;;;;;;;;;;5056130;28;20453;-76
2023/10/20 04:25:12;;;;;;;14.07;8.17;;;;;;;;;;5055762;28;20491;-77
2023/10/20 04:27:45;;;;;;;13.00;9.73;;;;;;;;;;5055301;28;20962;-77
2023/10/20 04:49:58;;;;;;;11.60;8.50;;;;;;;;;;5053426;28;20458;-77
2023/10/20 04:58:13;;;;;;;11.80;7.70;;;;;;;;;;5047506;28;20461;-77
2023/10/20 05:00:42;;;;;;;12.80;9.00;;;;;;;;;;5055352;28;20441;-76
2023/10/20 05:03:17;;;;;;;9.13;8.17;;;;;;;;;;5055444;28;20813;-77
2023/10/20 05:05:53;;;;;;;10.30;8.50;;;;;;;;;;5055477;28;20421;-77
2023/10/20 05:08:22;;;;;;;11.13;9.20;;;;;;;;;;5054478;28;20442;-77
2023/10/20 05:10:50;;;;;;;13.37;10.27;;;;;;;;;;5055184;28;20433;-77
2023/10/20 05:13:19;;;;;;;12.40;11.13;;;;;;;;;;5054720;28;20465;-77
2023/10/20 05:15:47;;;;;;;11.73;8.10;;;;;;;;;;5055159;28;20511;-77
2023/10/20 05:18:16;;;;;;;7.90;7.10;;;;;;;;;;5054645;28;20476;-77
2023/10/20 05:20:45;;;;;;;9.67;8.60;;;;;;;;;;5054884;28;20495;-77
2023/10/20 05:23:14;;;;;;;10.70;7.67;;;;;;;;;;5055060;28;20791;-77
2023/10/20 05:25:46;;;;;;;9.53;8.53;;;;;;;;;;5052897;28;20437;-76
2023/10/20 05:28:15;;;;;;;10.90;8.90;;;;;;;;;;5053188;28;20426;-77
2023/10/20 05:30:43;;;;;;;12.50;10.07;;;;;;;;;;5054514;28;20449;-77
2023/10/20 05:33:14;;;;;;;15.23;9.60;;;;;;;;;;5053600;28;20449;-77
2023/10/20 05:35:43;;;;;;;12.23;8.50;;;;;;;;;;5054203;28;20422;-77
2023/10/20 05:38:10;;;;;;;9.87;8.83;;;;;;;;;;5053735;28;20469;-77
2023/10/20 05:40:39;;;;;;;9.60;7.90;;;;;;;;;;5054148;28;20433;-77
2023/10/20 05:43:06;;;;;;;10.60;7.70;;;;;;;;;;5054109;28;20440;-77
2023/10/20 05:45:39;;;;;;;9.37;8.17;;;;;;;;;;5053865;28;20449;-77
2023/10/20 05:48:07;;;;;;;10.97;8.00;;;;;;;;;;5053439;28;20568;-77
2023/10/20 05:50:35;;;;;;;9.33;8.33;;;;;;;;;;5053881;28;20433;-77
2023/10/20 05:53:04;;;;;;;12.40;8.07;;;;;;;;;;5052385;28;20469;-77
2023/10/20 05:55:31;;;;;;;10.17;8.67;;;;;;;;;;5053537;28;20440;-77
2023/10/20 05:58:00;;;;;;;10.40;9.30;;;;;;;;;;5050494;28;21032;-77
2023/10/20 06:00:27;;;;;;;10.97;8.00;;;;;;;;;;5052392;28;20775;-77
2023/10/20 06:02:55;;;;;;;12.10;8.33;;;;;;;;;;5052535;28;20854;-77
2023/10/20 06:05:22;;;;;;;10.63;8.87;;;;;;;;;;5051852;28;20441;-76
2023/10/20 06:07:50;;;;;;;12.47;9.83;;;;;;;;;;5052047;28;20446;-77
2023/10/20 06:10:23;;;;;;;9.40;7.70;;;;;;;;;;5052880;28;20452;-77
2023/10/20 06:12:51;;;;;;;9.60;8.60;;;;;;;;;;5050765;28;20525;-77
2023/10/20 06:15:19;;;;;;;10.87;9.37;;;;;;;;;;5052347;28;20461;-77
2023/10/20 06:17:46;;;;;;;12.83;8.63;;;;;;;;;;5052454;28;20461;-77
2023/10/20 06:20:14;;;;;;;10.50;8.47;;;;;;;;;;5052345;28;20433;-76
2023/10/20 06:22:42;;;;;;;12.93;9.40;;;;;;;;;;5052645;28;20532;-76
2023/10/20 06:25:12;;;;;;;11.43;9.50;;;;;;;;;;5052862;28;20465;-77
2023/10/20 06:27:41;;;;;;;10.80;9.03;;;;;;;;;;5052900;28;20441;-77
2023/10/20 06:30:14;;;;;;;10.67;9.57;;;;;;;;;;5050631;28;20487;-76
2023/10/20 06:32:43;;;;;;;11.70;8.60;;;;;;;;;;5052602;28;20428;-77
2023/10/20 06:35:12;;;;;;;14.97;11.87;;;;;;;;;;5049690;28;20519;-76
2023/10/20 06:37:46;;;;;;;13.57;10.03;;;;;;;;;;5048757;28;20510;-76
2023/10/20 06:40:16;;;;;;;13.33;9.87;;;;;;;;;;5052245;28;20841;-77
2023/10/20 06:42:45;;;;;;;11.83;10.00;;;;;;;;;;5048629;28;20499;-77
2023/10/20 06:45:12;;;;;;;13.03;10.50;;;;;;;;;;5046199;28;20430;-76
2023/10/20 06:47:40;;;;;;;18.10;10.60;;;;;;;;;;5049310;28;20445;-76
2023/10/20 06:50:08;;;;;;;14.30;12.33;;;;;;;;;;5050480;28;20453;-76
2023/10/20 06:52:36;;;;;;;15.03;11.47;;;;;;;;;;5052758;28;20443;-77
2023/10/20 06:55:03;;;;;;;12.37;10.87;;;;;;;;;;5051738;28;20476;-76
2023/10/20 06:57:31;;;;;;;11.70;10.40;;;;;;;;;;5033298;28;20828;-76
2023/10/20 06:59:59;;;;;;;11.30;8.20;;;;;;;;;;5051814;28;20504;-76
2023/10/20 07:02:27;;;;;;;14.83;9.00;;;;;;;;;;5052953;28;20429;-77
2023/10/20 07:04:55;;;;;;;9.90;8.27;;;;;;;;;;5052991;28;20441;-77
2023/10/20 07:07:23;;;;;;;14.43;10.03;;;;;;;;;;5052964;28;20434;-77
2023/10/20 07:09:50;;;;;;;11.90;8.90;;;;;;;;;;5053083;28;20499;-77
2023/10/20 07:12:17;;;;;;;10.30;9.07;;;;;;;;;;5054294;28;20939;-77
2023/10/20 07:14:44;;;;;;;14.73;10.80;;;;;;;;;;5056825;28;20433;-77
2023/10/20 07:17:13;;;;;;;12.77;9.40;;;;;;;;;;5057080;28;20440;-77
2023/10/20 07:19:40;;;;;;;10.20;8.97;;;;;;;;;;5056860;28;20872;-77
2023/10/20 07:22:08;;;;;;;12.57;10.77;;;;;;;;;;5057045;28;20469;-77
2023/10/20 07:24:35;;;;;;;13.73;8.70;;;;;;;;;;5056604;28;20981;-77
2023/10/20 07:27:02;;;;;;;15.77;9.43;;;;;;;;;;5056907;28;20854;-77
2023/10/20 07:29:30;;;;;;;9.67;8.57;;;;;;;;;;5056804;28;20486;-77
2023/10/20 07:31:58;;;;;;;13.10;7.60;;;;;;;;;;5056479;28;20523;-77
2023/10/20 07:34:27;;;;;;;8.57;6.90;;;;;;;;;;5056702;28;20518;-77
2023/10/20 07:36:54;;;;;;;10.70;8.20;;;;;;;;;;5056647;28;20539;-77
2023/10/20 07:39:22;;;;;;;8.83;7.40;;;;;;;;;;5056290;28;20479;-77
2023/10/20 07:41:49;;;;;;;9.43;7.20;;;;;;;;;;5056520;28;20548;-77
2023/10/20 07:44:18;;;;;;;8.27;6.80;;;;;;;;;;5056625;28;20475;-77
2023/10/20 07:46:45;;;;;;;9.37;7.67;;;;;;;;;;5056243;28;20444;-77
2023/10/20 07:49:12;;;;;;;7.67;6.47;;;;;;;;;;5056446;28;20531;-77
2023/10/20 07:51:41;;;;;;;8.73;6.50;;;;;;;;;;5056089;28;20488;-77
2023/10/20 07:54:10;;;;;;;15.40;6.33;;;;;;;;;;5056346;28;20825;-77
2023/10/20 07:56:37;;;;;;;9.10;7.13;;;;;;;;;;5056345;28;20490;-77
2023/10/20 07:59:05;;;;;;;6.70;5.33;;;;;;;;;;5055934;28;20505;-77
2023/10/20 08:01:32;;;;;;;9.03;6.50;;;;;;;;;;5056008;28;20441;-77
2023/10/20 08:03:59;;;;;;;8.43;7.07;;;;;;;;;;5056000;28;20429;-77
2023/10/20 08:06:27;;;;;;;6.53;5.80;;;;;;;;;;5056151;28;20441;-78
2023/10/20 08:08:55;;;;;;;7.57;5.40;;;;;;;;;;5056319;28;20441;-77
2023/10/20 08:11:22;;;;;;;7.50;5.77;;;;;;;;;;5056144;28;20494;-77
2023/10/20 08:13:51;;;;;;;8.20;6.67;;;;;;;;;;5056046;28;20437;-77
2023/10/20 08:16:21;;;;;;;6.90;5.77;;;;;;;;;;5056061;28;20784;-77
2023/10/20 08:18:48;;;;;;;7.23;5.60;;;;;;;;;;5055813;28;20558;-77
2023/10/20 08:21:16;;;;;;;7.57;6.20;;;;;;;;;;5055648;28;20446;-77
2023/10/20 08:23:44;;;;;;;7.70;5.27;;;;;;;;;;5054850;28;20433;-77
2023/10/20 08:26:19;;;;;;;7.00;5.40;;;;;;;;;;5055828;28;20537;-77
2023/10/20 08:28:46;;;;;;;7.53;5.67;;;;;;;;;;5056170;28;20507;-77
2023/10/20 08:31:14;;;;;;;7.43;5.80;;;;;;;;;;5055417;28;20438;-77
2023/10/20 08:33:42;;;;;;;6.63;5.57;;;;;;;;;;5055684;28;20459;-77
2023/10/20 08:36:12;;;;;;;6.23;4.83;;;;;;;;;;5055585;28;20433;-77
2023/10/20 08:38:39;;;;;;;6.20;5.27;;;;;;;;;;5055240;28;20505;-77
2023/10/20 08:41:10;;;;;;;7.27;5.47;;;;;;;;;;5055260;28;20555;-77
2023/10/20 08:43:40;;;;;;;10.00;5.90;;;;;;;;;;5055545;28;20421;-77
2023/10/20 08:46:09;;;;;;;7.40;6.70;;;;;;;;;;5055081;28;20529;-77
2023/10/20 08:48:38;;;;;;;6.60;5.30;;;;;;;;;;5055319;28;20465;-77
2023/10/20 08:51:06;;;;;;;7.43;5.00;;;;;;;;;;5055335;28;20434;-77
2023/10/20 08:53:34;;;;;;;6.50;4.10;;;;;;;;;;5055353;28;20438;-77
2023/10/20 08:56:02;;;;;;;6.40;3.60;;;;;;;;;;5055258;28;20857;-77
2023/10/20 08:58:30;;;;;;;6.03;3.53;;;;;;;;;;5054734;28;20513;-77
2023/10/20 09:01:01;;;;;;;6.40;4.53;;;;;;;;;;5054784;28;20441;-78
2023/10/20 09:03:29;;;;;;;7.20;4.23;;;;;;;;;;5054803;28;20965;-78
2023/10/20 09:06:05;;;;;;;4.43;3.87;;;;;;;;;;5055053;28;20437;-79
2023/10/20 09:08:32;;;;;;;5.50;3.67;;;;;;;;;;5054731;28;20428;-79
2023/10/20 09:11:00;;;;;;;7.57;5.57;;;;;;;;;;5055232;28;20913;-79
2023/10/20 09:13:32;;;;;;;7.20;5.73;;;;;;;;;;5055031;28;20449;-79
2023/10/20 09:16:01;;;;;;;7.40;4.17;;;;;;;;;;5055078;28;20533;-79
2023/10/20 09:18:28;;;;;;;5.67;3.67;;;;;;;;;;5054739;28;20448;-79
2023/10/20 09:21:04;;;;;;;4.50;3.20;;;;;;;;;;5054811;28;20504;-79
2023/10/20 09:23:32;;;;;;;8.10;3.67;;;;;;;;;;5054494;28;20918;-79
2023/10/20 09:25:59;;;;;;;6.87;4.10;;;;;;;;;;5054859;28;20452;-79
2023/10/20 09:28:27;;;;;;;7.07;3.70;;;;;;;;;;5054658;28;20491;-80
2023/10/20 09:30:55;;;;;;;7.20;4.00;;;;;;;;;;5054544;28;20993;-80
2023/10/20 09:33:23;;;;;;;6.00;3.47;;;;;;;;;;5054561;28;20432;-79
2023/10/20 09:35:52;;;;;;;5.00;3.73;;;;;;;;;;5054274;28;20428;-79
2023/10/20 09:38:21;;;;;;;5.40;3.50;;;;;;;;;;5054068;28;20899;-79
2023/10/20 09:40:51;;;;;;;6.10;3.97;;;;;;;;;;5053922;28;20524;-79
2023/10/20 09:43:22;;;;;;;5.23;3.83;;;;;;;;;;5054554;28;20445;-79
2023/10/20 09:45:52;;;;;;;7.00;3.60;;;;;;;;;;5053960;28;20436;-79
2023/10/20 09:48:21;;;;;;;6.53;5.87;;;;;;;;;;5053986;28;20488;-79
2023/10/20 09:50:50;;;;;;;4.00;2.73;;;;;;;;;;5053800;28;20490;-79
2023/10/20 09:53:17;;;;;;;4.83;2.20;;;;;;;;;;5054156;28;20448;-80
2023/10/20 09:55:47;;;;;;;4.77;1.90;;;;;;;;;;5054147;28;20429;-80
2023/10/20 09:58:14;;;;;;;6.43;4.47;;;;;;;;;;5053746;28;20444;-79
2023/10/20 10:00:43;;;;;;;2.90;1.50;;;;;;;;;;5053541;28;21046;-79
2023/10/20 10:03:12;;;;;;;3.23;1.77;;;;;;;;;;5053666;28;20425;-79
2023/10/20 10:05:39;;;;;;;6.87;4.87;;;;;;;;;;5053634;28;20463;-79
2023/10/20 10:08:10;;;;;;;3.37;1.20;;;;;;;;;;5053401;28;20445;-79
2023/10/20 10:10:37;;;;;;;2.90;1.57;;;;;;;;;;5053857;28;20433;-79
2023/10/20 10:13:06;;;;;;;3.13;1.13;;;;;;;;;;5053588;28;20441;-79
2023/10/20 10:15:38;;;;;;;2.97;1.93;;;;;;;;;;5052213;28;20494;-79
2023/10/20 10:18:10;;;;;;;3.93;2.70;;;;;;;;;;5053838;28;20500;-79
2023/10/20 10:20:42;;;;;;;4.00;2.30;;;;;;;;;;5053470;28;20915;-78
2023/10/20 10:23:14;;;;;;;3.30;1.27;;;;;;;;;;5053670;28;20520;-79
2023/10/20 10:25:42;;;;;;;3.10;1.00;;;;;;;;;;5053616;28;20469;-79
2023/10/20 10:28:13;;;;;;;2.37;0.73;;;;;;;;;;5053510;28;20780;-79
2023/10/20 10:30:41;;;;;;;3.70;0.93;;;;;;;;;;5053525;28;20507;-79
2023/10/20 10:33:09;;;;;;;3.87;2.53;;;;;;;;;;5053114;28;20437;-79
2023/10/20 10:35:38;;;;;;;5.93;2.70;;;;;;;;;;5053284;28;20452;-79
2023/10/20 10:38:08;;;;;;;3.90;2.37;;;;;;;;;;5053251;28;20468;-79
2023/10/20 10:40:45;;;;;;;4.67;2.43;;;;;;;;;;5053127;28;20522;-79
2023/10/20 10:43:16;;;;;;;3.93;2.10;;;;;;;;;;5053259;28;20479;-79
2023/10/20 10:45:53;;;;;;;6.10;2.10;;;;;;;;;;5053200;28;20417;-79
2023/10/20 10:48:20;;;;;;;2.90;1.20;;;;;;;;;;5048989;28;21170;-79
2023/10/20 10:51:10;;;;;;;2.93;1.20;;;;;;;;;;5050429;28;20856;-79
2023/10/20 10:53:40;;;;;;;2.20;1.00;;;;;;;;;;5049749;28;20920;-79
2023/10/20 10:56:10;;;;;;;3.70;0.70;;;;;;;;;;5041884;28;20515;-79
2023/10/20 10:58:38;;;;;;;2.57;1.00;;;;;;;;;;5051987;28;20484;-79
2023/10/20 11:01:05;;;;;;;3.70;0.80;;;;;;;;;;5049239;28;20922;-79
2023/10/20 11:03:32;;;;;;;5.17;1.00;;;;;;;;;;5039522;28;20198;-79
2023/10/20 11:06:00;;;;;;;3.70;1.20;;;;;;;;;;5034175;28;20445;-79
2023/10/20 11:08:29;;;;;;;3.83;1.20;;;;;;;;;;5051927;28;20445;-79
2023/10/20 11:11:00;;;;;;;3.20;0.80;;;;;;;;;;5051773;28;20429;-80
2023/10/20 11:13:29;;;;;;;2.07;0.90;;;;;;;;;;5052507;28;20835;-80
2023/10/20 11:15:56;;;;;;;4.63;1.00;;;;;;;;;;5050402;28;20437;-81
2023/10/20 11:18:24;;;;;;;7.50;1.07;;;;;;;;;;5052515;28;20860;-80
2023/10/20 11:20:51;;;;;;;3.80;1.20;;;;;;;;;;5049592;28;20542;-81
2023/10/20 11:23:29;;;;;;;5.70;1.30;;;;;;;;;;5052365;28;20436;-80
2023/10/20 11:25:57;;;;;;;4.70;1.33;;;;;;;;;;5051905;28;20491;-80
2023/10/20 11:28:24;;;;;;;3.60;0.90;;;;;;;;;;5052350;28;20535;-80
2023/10/20 11:30:53;;;;;;;3.10;0.90;;;;;;;;;;5052434;28;20489;-80
2023/10/20 11:33:21;;;;;;;3.83;1.50;;;;;;;;;;5052692;28;20437;-80
2023/10/20 11:35:49;;;;;;;4.50;1.37;;;;;;;;;;5052558;28;20452;-80
2023/10/20 11:38:16;;;;;;;3.00;1.60;;;;;;;;;;5051948;28;20441;-80
2023/10/20 11:40:47;;;;;;;4.87;1.40;;;;;;;;;;5052649;28;20472;-80
2023/10/20 11:43:14;;;;;;;3.37;1.40;;;;;;;;;;5052804;28;20453;-79
2023/10/20 11:45:45;;;;;;;2.97;1.00;;;;;;;;;;5050763;28;20494;-79
2023/10/20 11:48:13;;;;;;;4.70;1.40;;;;;;;;;;5051519;28;20440;-79
2023/10/20 11:50:43;;;;;;;2.80;1.20;;;;;;;;;;5050918;28;20444;-78
2023/10/20 11:53:12;;;;;;;6.83;1.67;;;;;;;;;;5052457;28;20667;-78
2023/10/20 11:55:39;;;;;;;4.00;1.37;;;;;;;;;;5052681;28;20453;-78
2023/10/20 11:58:07;;;;;;;5.10;1.23;;;;;;;;;;5052530;28;20449;-78
2023/10/20 12:00:41;;;;;;;3.93;1.80;;;;;;;;;;5055886;28;20479;-78
2023/10/20 12:03:08;;;;;;;7.83;1.30;;;;;;;;;;5056615;28;20435;-78
2023/10/20 12:05:37;;;;;;;2.43;1.13;;;;;;;;;;5056125;28;20896;-78
2023/10/20 12:08:05;;;;;;;2.70;1.20;;;;;;;;;;5055940;28;20472;-78
2023/10/20 12:10:32;;;;;;;3.30;1.03;;;;;;;;;;5055803;28;20448;-78
2023/10/20 12:13:02;;;;;;;4.63;1.40;;;;;;;;;;5056146;28;20524;-78
2023/10/20 12:15:30;;;;;;;5.23;2.30;;;;;;;;;;5055602;28;20939;-78
2023/10/20 12:17:57;;;;;;;5.57;3.17;;;;;;;;;;5056055;28;20739;-78
2023/10/20 12:20:25;;;;;;;2.93;1.43;;;;;;;;;;5055405;28;20472;-78
2023/10/20 12:22:58;;;;;;;2.53;1.20;;;;;;;;;;5055919;28;20592;-78
2023/10/20 12:25:26;;;;;;;2.50;1.00;;;;;;;;;;5055866;28;20422;-78
2023/10/20 12:27:53;;;;;;;2.30;1.10;;;;;;;;;;5055612;28;20429;-78
2023/10/20 12:30:20;;;;;;;2.80;1.30;;;;;;;;;;5055479;28;20467;-78
2023/10/20 12:32:48;;;;;;;2.43;0.90;;;;;;;;;;5055663;28;20437;-78
2023/10/20 12:35:16;;;;;;;4.17;1.37;;;;;;;;;;5055362;28;20800;-78
2023/10/20 12:37:43;;;;;;;3.63;1.20;;;;;;;;;;5055197;28;20449;-78
2023/10/20 12:40:13;;;;;;;9.63;4.70;;;;;;;;;;5055123;28;20515;-78
2023/10/20 12:42:41;;;;;;;7.23;4.93;;;;;;;;;;5055375;28;20487;-78
2023/10/20 12:45:10;;;;;;;4.07;1.40;;;;;;;;;;5055360;28;20433;-78
2023/10/20 12:47:37;;;;;;;2.43;1.17;;;;;;;;;;5055180;28;20444;-78
2023/10/20 12:50:06;;;;;;;2.97;1.10;;;;;;;;;;5055363;28;20445;-78
2023/10/20 12:52:33;;;;;;;2.40;1.13;;;;;;;;;;5055260;28;20441;-78
2023/10/20 12:55:00;;;;;;;2.70;1.53;;;;;;;;;;5054937;28;20499;-78
2023/10/20 12:57:29;;;;;;;6.13;4.33;;;;;;;;;;5055187;28;20440;-78
2023/10/20 12:59:56;;;;;;;4.17;2.10;;;;;;;;;;5055094;28;20483;-78
2023/10/20 13:02:23;;;;;;;3.63;1.30;;;;;;;;;;5055010;28;20433;-78
2023/10/20 13:04:51;;;;;;;4.93;2.30;;;;;;;;;;5054893;28;20574;-78
2023/10/20 13:07:18;;;;;;;4.57;2.20;;;;;;;;;;5054931;28;20513;-78
2023/10/20 13:09:45;;;;;;;6.13;2.60;;;;;;;;;;5054508;28;20608;-78
2023/10/20 13:12:12;;;;;;;4.03;1.67;;;;;;;;;;5054864;28;20503;-78
2023/10/20 13:14:41;;;;;;;6.13;1.30;;;;;;;;;;5054551;28;20445;-78
2023/10/20 13:17:08;;;;;;;6.00;1.13;;;;;;;;;;5054874;28;20523;-78
2023/10/20 13:19:37;;;;;;;3.10;1.50;;;;;;;;;;5054645;28;20491;-78
2023/10/20 13:22:04;;;;;;;2.30;1.07;;;;;;;;;;5054631;28;20576;-78
2023/10/20 13:24:32;;;;;;;4.10;2.27;;;;;;;;;;5054663;28;20518;-78
2023/10/20 13:27:00;;;;;;;5.43;1.87;;;;;;;;;;5054273;28;20438;-78
2023/10/20 13:29:28;;;;;;;4.40;2.20;;;;;;;;;;5054575;28;20433;-78
2023/10/20 13:31:56;;;;;;;2.70;1.13;;;;;;;;;;5054627;28;20586;-78
2023/10/20 13:34:23;;;;;;;2.40;1.00;;;;;;;;;;5054116;28;20963;-78
2023/10/20 13:36:51;;;;;;;3.67;1.40;;;;;;;;;;5054015;28;20498;-78
2023/10/20 13:39:22;;;;;;;4.73;3.00;;;;;;;;;;5054238;28;20858;-78
2023/10/20 13:41:49;;;;;;;5.03;1.60;;;;;;;;;;5054373;28;20481;-77
2023/10/20 13:44:16;;;;;;;2.53;1.03;;;;;;;;;;5054233;28;20433;-78
2023/10/20 13:46:44;;;;;;;2.47;1.30;;;;;;;;;;5053935;28;20974;-78
2023/10/20 13:49:12;;;;;;;2.17;0.70;;;;;;;;;;5054080;28;20464;-78
2023/10/20 13:51:40;;;;;;;2.13;0.63;;;;;;;;;;5053750;28;20970;-78
2023/10/20 13:54:07;;;;;;;1.90;0.70;;;;;;;;;;5054061;28;20524;-78
2023/10/20 13:56:34;;;;;;;2.10;0.80;;;;;;;;;;5053997;28;20472;-78
2023/10/20 13:59:01;;;;;;;1.80;0.60;;;;;;;;;;5054026;28;20438;-78
2023/10/20 14:01:28;;;;;;;1.90;0.60;;;;;;;;;;5053622;28;20532;-78
2023/10/20 14:03:56;;;;;;;2.00;0.73;;;;;;;;;;5053909;28;20434;-78
2023/10/20 14:06:26;;;;;;;2.10;0.63;;;;;;;;;;5053582;28;20437;-77
2023/10/20 14:08:53;;;;;;;1.90;0.80;;;;;;;;;;5054310;28;20465;-77
2023/10/20 14:11:20;;;;;;;2.00;0.70;;;;;;;;;;5053553;28;20437;-78
2023/10/20 14:13:47;;;;;;;1.80;0.50;;;;;;;;;;5053733;28;20836;-78
2023/10/20 14:16:14;;;;;;;1.90;0.67;;;;;;;;;;5053764;28;20499;-78
2023/10/20 14:18:42;;;;;;;1.90;0.70;;;;;;;;;;5053363;28;20907;-78
2023/10/20 14:21:09;;;;;;;1.90;0.70;;;;;;;;;;5053029;28;20469;-78
2023/10/20 14:23:37;;;;;;;2.10;0.70;;;;;;;;;;5053074;28;20459;-78
2023/10/20 14:26:05;;;;;;;2.10;0.70;;;;;;;;;;5053225;28;20479;-78
2023/10/20 14:28:32;;;;;;;2.17;0.80;;;;;;;;;;5053667;28;20483;-78
2023/10/20 14:30:59;;;;;;;3.00;0.70;;;;;;;;;;5053336;28;20442;-78
2023/10/20 14:33:27;;;;;;;4.80;0.77;;;;;;;;;;5053721;28;20516;-78
2023/10/20 14:35:56;;;;;;;2.80;0.93;;;;;;;;;;5053565;28;20434;-78
2023/10/20 14:38:24;;;;;;;1.90;0.60;;;;;;;;;;5053268;28;21006;-78
2023/10/20 14:41:01;;;;;;;1.80;0.60;;;;;;;;;;5053214;28;20625;-78
2023/10/20 14:43:31;;;;;;;1.90;0.50;;;;;;;;;;5053387;28;20413;-78
2023/10/20 14:45:59;;;;;;;1.93;0.60;;;;;;;;;;5053186;28;20433;-78
2023/10/20 14:48:27;;;;;;;1.90;0.60;;;;;;;;;;5053174;28;20544;-78
2023/10/20 14:50:58;;;;;;;2.03;0.60;;;;;;;;;;5053308;28;20453;-77
2023/10/20 14:53:26;;;;;;;2.70;0.77;;;;;;;;;;5053537;28;20426;-78
2023/10/20 14:55:53;;;;;;;2.67;0.60;;;;;;;;;;5053365;28;20434;-77
2023/10/20 14:58:22;;;;;;;1.80;0.60;;;;;;;;;;5053348;28;20435;-77
2023/10/20 15:00:50;;;;;;;1.90;0.50;;;;;;;;;;5053243;28;20877;-77
2023/10/20 15:03:19;;;;;;;2.20;0.70;;;;;;;;;;5053327;28;20425;-77
2023/10/20 15:05:46;;;;;;;2.60;1.10;;;;;;;;;;5053176;28;20442;-77
2023/10/20 15:08:14;;;;;;;2.33;0.83;;;;;;;;;;5052731;28;20441;-78
2023/10/20 15:10:41;;;;;;;3.70;1.87;;;;;;;;;;5053046;28;20825;-77